createdAt,value
2017-12-15T02:32:38.438Z,1.60
2017-12-15T02:35:04.581Z,1.60
2017-12-15T02:37:30.752Z,1.60
2017-12-15T02:39:56.843Z,1.70
2017-12-15T02:42:23.680Z,1.70
2017-12-15T02:44:49.810Z,1.60
2017-12-15T02:47:15.922Z,1.60
2017-12-15T02:49:42.008Z,1.60
2017-12-15T02:52:08.187Z,1.70
2017-12-15T02:54:34.293Z,1.70
2017-12-15T02:57:00.511Z,1.70
2017-12-15T03:29:01.083Z,1.60
2017-12-15T03:31:27.201Z,2.00
2017-12-15T03:33:53.297Z,1.90
2017-12-15T03:36:20.220Z,1.70
2017-12-15T03:38:46.376Z,1.60
2017-12-15T03:41:12.471Z,1.60
2017-12-15T03:43:38.609Z,1.70
2017-12-15T03:46:04.739Z,1.60
2017-12-15T03:48:30.863Z,1.70
2017-12-15T03:50:56.989Z,1.70
2017-12-15T03:53:23.080Z,1.70
2017-12-15T03:55:49.197Z,1.80
2017-12-15T03:58:15.319Z,1.70
2017-12-15T04:00:41.440Z,1.80
2017-12-15T04:03:07.589Z,1.80
2017-12-15T04:05:33.736Z,1.80
2017-12-15T04:07:59.836Z,1.80
2017-12-15T04:10:26.680Z,1.90
2017-12-15T04:12:52.809Z,1.80
2017-12-15T04:15:18.948Z,1.90
2017-12-15T04:17:45.036Z,1.90
2017-12-15T04:20:11.201Z,2.00
2017-12-15T04:22:37.283Z,2.00
2017-12-15T04:25:04.152Z,2.00
2017-12-15T04:27:30.324Z,2.00
2017-12-15T04:29:56.476Z,2.00
2017-12-15T04:32:22.573Z,1.90
2017-12-15T04:34:48.680Z,1.90
2017-12-15T04:37:14.781Z,1.80
2017-12-15T04:39:40.909Z,1.70
2017-12-15T04:42:07.787Z,1.80
2017-12-15T04:44:33.885Z,1.70
2017-12-15T04:47:00.021Z,1.70
2017-12-15T04:49:26.212Z,1.70
2017-12-15T04:51:52.304Z,1.70
2017-12-15T04:54:18.408Z,1.70
2017-12-15T04:56:45.296Z,1.70
2017-12-15T04:59:11.397Z,1.60
2017-12-15T05:01:37.492Z,1.70
2017-12-15T05:04:03.654Z,1.80
2017-12-15T05:06:29.784Z,1.80
2017-12-15T05:08:55.882Z,1.80
2017-12-15T05:11:22.018Z,1.90
2017-12-15T05:13:48.138Z,1.90
2017-12-15T05:16:14.232Z,1.90
2017-12-15T05:18:40.377Z,2.00
2017-12-15T05:21:06.505Z,2.00
2017-12-15T05:23:32.608Z,2.10
2017-12-15T05:25:58.755Z,2.10
2017-12-15T05:28:24.853Z,2.10
2017-12-15T05:30:50.972Z,2.20
2017-12-15T05:33:17.104Z,2.20
2017-12-15T05:35:43.221Z,2.30
2017-12-15T05:38:09.317Z,2.30
2017-12-15T05:40:35.440Z,2.30
2017-12-15T05:43:01.589Z,2.30
2017-12-15T05:45:27.693Z,2.30
2017-12-15T05:47:53.822Z,2.30
2017-12-15T05:50:19.912Z,2.30
2017-12-15T05:52:46.044Z,2.30
2017-12-15T05:55:12.197Z,2.30
2017-12-15T05:57:38.334Z,2.30
2017-12-15T06:00:04.454Z,2.30
2017-12-15T06:02:31.336Z,2.30
2017-12-15T06:04:57.433Z,2.30
2017-12-15T06:07:23.508Z,2.40
2017-12-15T06:09:50.516Z,2.40
2017-12-15T06:12:16.613Z,2.40
2017-12-15T06:14:42.761Z,2.40
2017-12-15T06:17:08.901Z,2.40
2017-12-15T06:19:35.044Z,2.40
2017-12-15T06:22:01.180Z,2.50
2017-12-15T06:24:27.353Z,2.50
2017-12-15T06:26:53.545Z,2.50
2017-12-15T06:29:19.648Z,2.50
2017-12-15T06:31:46.565Z,2.50
2017-12-15T06:34:12.672Z,2.50
2017-12-15T06:36:38.773Z,2.50
2017-12-15T06:39:04.921Z,2.50
2017-12-15T06:41:31.770Z,2.50
2017-12-15T06:43:58.620Z,2.50
2017-12-15T06:46:25.484Z,2.50
2017-12-15T06:48:52.345Z,2.40
2017-12-15T06:51:19.197Z,2.40
2017-12-15T06:53:45.327Z,2.30
2017-12-15T06:56:12.172Z,2.30
2017-12-15T06:58:38.257Z,2.30
2017-12-15T07:01:04.404Z,2.30
2017-12-15T07:03:30.573Z,2.30
2017-12-15T07:05:56.677Z,2.30
2017-12-15T07:08:22.779Z,2.30
2017-12-15T07:10:49.709Z,2.40
2017-12-15T07:13:15.872Z,2.40
2017-12-15T07:15:42.736Z,2.40
2017-12-15T07:18:08.853Z,2.30
2017-12-15T07:20:35.016Z,2.40
2017-12-15T07:23:02.000Z,2.50
2017-12-15T07:25:28.789Z,2.50
2017-12-15T07:27:54.883Z,2.50
2017-12-15T07:30:21.050Z,2.50
2017-12-15T07:32:47.216Z,2.60
2017-12-15T07:35:13.332Z,2.50
2017-12-15T07:37:39.473Z,2.60
2017-12-15T07:40:05.557Z,2.60
2017-12-15T07:42:31.690Z,2.60
2017-12-15T07:44:58.552Z,2.70
2017-12-15T07:47:24.692Z,2.60
2017-12-15T07:49:50.776Z,2.70
2017-12-15T07:52:16.900Z,2.70
2017-12-15T07:54:43.027Z,2.70
2017-12-15T07:57:10.134Z,2.70
2017-12-15T07:59:36.256Z,2.60
2017-12-15T08:02:02.395Z,2.60
2017-12-15T08:04:28.565Z,2.70
2017-12-15T08:06:54.708Z,2.70
2017-12-15T08:09:21.589Z,2.70
2017-12-15T08:11:47.673Z,2.70
2017-12-15T08:14:13.806Z,2.80
2017-12-15T08:16:40.002Z,3.00
2017-12-15T08:19:06.172Z,2.90
2017-12-15T08:21:32.300Z,3.00
2017-12-15T08:23:58.404Z,3.10
2017-12-15T08:26:25.244Z,2.90
2017-12-15T08:28:52.117Z,3.00
2017-12-15T08:31:18.212Z,3.00
2017-12-15T08:33:44.365Z,3.00
2017-12-15T08:36:10.511Z,3.00
2017-12-15T08:38:36.629Z,3.00
2017-12-15T08:41:02.865Z,2.90
2017-12-15T08:43:29.001Z,2.90
2017-12-15T08:45:55.117Z,2.90
2017-12-15T08:48:22.058Z,2.90
2017-12-15T08:50:48.210Z,2.90
2017-12-15T08:53:14.316Z,3.00
2017-12-15T08:55:40.413Z,3.10
2017-12-15T08:58:06.976Z,3.20
2017-12-15T09:00:33.123Z,3.20
2017-12-15T09:02:59.226Z,3.20
2017-12-15T09:05:25.332Z,3.20
2017-12-15T09:07:51.437Z,3.30
2017-12-15T09:10:17.547Z,3.40
2017-12-15T09:12:43.697Z,3.50
2017-12-15T09:15:12.543Z,3.50
2017-12-15T09:17:35.933Z,3.70
2017-12-15T09:20:02.077Z,3.70
2017-12-15T09:22:28.166Z,3.80
2017-12-15T09:24:54.260Z,3.80
2017-12-15T09:27:20.372Z,3.70
2017-12-15T09:29:46.526Z,3.80
2017-12-15T09:32:12.604Z,3.90
2017-12-15T09:34:38.748Z,3.90
2017-12-15T09:37:04.840Z,3.80
2017-12-15T09:39:31.002Z,3.70
2017-12-15T09:41:57.143Z,3.80
2017-12-15T09:44:23.284Z,3.60
2017-12-15T10:55:50.487Z,3.70
